createdAt,value
2023-04-02T00:00:21.467Z,93790.00
2023-04-02T00:01:21.512Z,93792.00
2023-04-02T00:02:21.633Z,93792.00
2023-04-02T00:03:21.728Z,93792.00
2023-04-02T00:04:21.700Z,93794.00
2023-04-02T00:05:21.748Z,93796.00
2023-04-02T00:06:21.800Z,93790.00
2023-04-02T00:07:21.853Z,93794.00
2023-04-02T00:08:21.898Z,93792.00
2023-04-02T00:09:21.953Z,93792.00
2023-04-02T00:10:22.007Z,93796.00
2023-04-02T00:11:22.062Z,93792.00
2023-04-02T00:12:22.117Z,93790.00
2023-04-02T00:13:22.170Z,93794.00
2023-04-02T00:14:22.218Z,93792.00
2023-04-02T00:15:22.271Z,93790.00
2023-04-02T00:16:22.370Z,93790.00
2023-04-02T00:17:22.405Z,93788.00
2023-04-02T00:18:22.470Z,93788.00
2023-04-02T00:19:22.488Z,93788.00
2023-04-02T00:20:22.561Z,93786.00
2023-04-02T00:21:22.603Z,93786.00
2023-04-02T00:22:22.672Z,93786.00
2023-04-02T00:23:22.720Z,93784.00
2023-04-02T00:24:22.766Z,93788.00
2023-04-02T00:25:22.837Z,93786.00
2023-04-02T00:26:22.888Z,93784.00
2023-04-02T00:27:22.955Z,93784.00
2023-04-02T00:28:23.024Z,93786.00
2023-04-02T00:29:23.078Z,93786.00
2023-04-02T00:30:23.128Z,93788.00
2023-04-02T00:31:23.427Z,93790.00
2023-04-02T00:32:23.247Z,93790.00
2023-04-02T00:33:23.310Z,93790.00
2023-04-02T00:34:23.350Z,93790.00
2023-04-02T00:35:23.419Z,93786.00
2023-04-02T00:36:23.542Z,93790.00
2023-04-02T00:37:23.516Z,93788.00
2023-04-02T00:38:23.573Z,93794.00
2023-04-02T00:39:23.626Z,93796.00
2023-04-02T00:40:23.697Z,93794.00
2023-04-02T00:41:23.752Z,93794.00
2023-04-02T00:42:23.810Z,93790.00
2023-04-02T00:43:23.861Z,93792.00
2023-04-02T00:44:23.920Z,93794.00
2023-04-02T00:45:24.021Z,93792.00
2023-04-02T00:46:24.069Z,93792.00
2023-04-02T00:47:24.085Z,93796.00
2023-04-02T00:48:24.158Z,93796.00
2023-04-02T00:49:24.209Z,93798.00
2023-04-02T00:50:24.263Z,93798.00
2023-04-02T00:51:24.324Z,93796.00
2023-04-02T00:52:24.393Z,93798.00
2023-04-02T00:53:24.427Z,93802.00
2023-04-02T00:54:24.479Z,93798.00
2023-04-02T00:55:24.532Z,93800.00
2023-04-02T00:56:24.596Z,93800.00
2023-04-02T00:57:24.676Z,93802.00
2023-04-02T00:58:24.730Z,93800.00
2023-04-02T00:59:24.848Z,93802.00
2023-04-02T01:00:24.912Z,93802.00
2023-04-02T01:01:25.036Z,93798.00
2023-04-02T01:02:25.045Z,93798.00
2023-04-02T01:03:25.060Z,93800.00
2023-04-02T01:04:25.068Z,93798.00
2023-04-02T01:05:25.096Z,93798.00
2023-04-02T01:06:25.092Z,93798.00
2023-04-02T01:07:25.119Z,93798.00
2023-04-02T01:08:25.129Z,93798.00
2023-04-02T01:09:25.166Z,93798.00
2023-04-02T01:10:25.175Z,93798.00
2023-04-02T01:11:25.186Z,93800.00
2023-04-02T01:12:25.198Z,93802.00
2023-04-02T01:13:25.237Z,93800.00
2023-04-02T01:14:25.232Z,93802.00
2023-04-02T01:15:25.244Z,93805.00
2023-04-02T01:16:25.394Z,93803.00
2023-04-02T01:17:25.332Z,93805.00
2023-04-02T01:18:25.324Z,93802.00
2023-04-02T01:19:25.379Z,93803.00
2023-04-02T01:20:25.429Z,93805.00
2023-04-02T01:21:25.504Z,93802.00
2023-04-02T01:22:25.550Z,93805.00
2023-04-02T01:23:25.610Z,93805.00
2023-04-02T01:24:25.666Z,93803.00
2023-04-02T01:25:25.728Z,93803.00
2023-04-02T01:26:25.779Z,93802.00
2023-04-02T01:27:25.834Z,93803.00
2023-04-02T01:28:25.880Z,93803.00
2023-04-02T01:29:25.946Z,93802.00
2023-04-02T01:30:26.012Z,93803.00
2023-04-02T01:31:26.112Z,93803.00
2023-04-02T01:32:26.158Z,93803.00
2023-04-02T01:33:26.191Z,93802.00
2023-04-02T01:34:26.771Z,93800.00
2023-04-02T01:35:26.309Z,93803.00
2023-04-02T01:36:26.349Z,93803.00
2023-04-02T01:37:26.420Z,93805.00
2023-04-02T01:38:26.472Z,93807.00
2023-04-02T01:39:26.515Z,93811.00
2023-04-02T01:40:26.557Z,93813.00
2023-04-02T01:41:26.635Z,93817.00
2023-04-02T01:42:26.734Z,93819.00
2023-04-02T01:43:26.719Z,93821.00
2023-04-02T01:44:26.788Z,93821.00
2023-04-02T01:45:26.847Z,93821.00
2023-04-02T01:46:26.980Z,93821.00
2023-04-02T01:47:27.005Z,93819.00
2023-04-02T01:48:27.027Z,93821.00
2023-04-02T01:49:27.103Z,93823.00
2023-04-02T01:50:27.128Z,93823.00
2023-04-02T01:51:27.197Z,93825.00
2023-04-02T01:52:27.247Z,93827.00
2023-04-02T01:53:27.293Z,93829.00
2023-04-02T01:54:27.359Z,93829.00
2023-04-02T01:55:27.424Z,93831.00
2023-04-02T01:56:27.467Z,93831.00
2023-04-02T01:57:27.588Z,93833.00
2023-04-02T01:58:27.574Z,93833.00
2023-04-02T01:59:27.630Z,93835.00
2023-04-02T02:00:27.735Z,93837.00
2023-04-02T02:01:27.757Z,93835.00
2023-04-02T02:02:27.892Z,93839.00
2023-04-02T02:03:27.863Z,93837.00
2023-04-02T02:04:27.919Z,93839.00
2023-04-02T02:05:27.987Z,93841.00
2023-04-02T02:06:28.033Z,93847.00
2023-04-02T02:07:28.100Z,93843.00
2023-04-02T02:08:28.135Z,93845.00
2023-04-02T02:09:28.191Z,93845.00
2023-04-02T02:10:28.251Z,93847.00
2023-04-02T02:11:28.310Z,93847.00
2023-04-02T02:12:28.431Z,93847.00
2023-04-02T02:13:28.406Z,93849.00
2023-04-02T02:14:28.478Z,93850.00
2023-04-02T02:15:28.546Z,93849.00
2023-04-02T02:16:28.647Z,93849.00
2023-04-02T02:17:28.707Z,93849.00
2023-04-02T02:18:28.734Z,93850.00
2023-04-02T02:19:28.799Z,93850.00
2023-04-02T02:20:28.834Z,93852.00
2023-04-02T02:21:28.959Z,93850.00
2023-04-02T02:22:29.001Z,93850.00
2023-04-02T02:23:29.037Z,93850.00
2023-04-02T02:24:29.099Z,93849.00
2023-04-02T02:25:29.170Z,93850.00
2023-04-02T02:26:29.208Z,93852.00
2023-04-02T02:27:29.277Z,93852.00
2023-04-02T02:28:29.327Z,93854.00
2023-04-02T02:29:29.373Z,93856.00
2023-04-02T02:30:29.448Z,93854.00
2023-04-02T02:31:29.513Z,93856.00
2023-04-02T02:32:29.632Z,93854.00
2023-04-02T02:33:29.629Z,93854.00
2023-04-02T02:34:29.673Z,93856.00
2023-04-02T02:35:29.721Z,93860.00
2023-04-02T02:36:29.786Z,93860.00
2023-04-02T02:37:29.849Z,93862.00
2023-04-02T02:38:29.903Z,93860.00
2023-04-02T02:39:29.952Z,93862.00
2023-04-02T02:40:30.041Z,93860.00
2023-04-02T02:41:30.075Z,93862.00
2023-04-02T02:42:30.152Z,93864.00
2023-04-02T02:43:30.191Z,93864.00
2023-04-02T02:44:30.235Z,93868.00
2023-04-02T02:45:30.291Z,93864.00
2023-04-02T02:46:30.398Z,93864.00
2023-04-02T02:47:30.448Z,93862.00
2023-04-02T02:48:30.478Z,93864.00
2023-04-02T02:49:30.545Z,93862.00
2023-04-02T02:50:30.575Z,93864.00
2023-04-02T02:51:30.648Z,93864.00
2023-04-02T02:52:30.698Z,93862.00
2023-04-02T02:53:30.755Z,93862.00
2023-04-02T02:54:30.809Z,93860.00
2023-04-02T02:55:30.889Z,93860.00
2023-04-02T02:56:30.949Z,93860.00
2023-04-02T02:57:31.191Z,93860.00
2023-04-02T02:58:31.046Z,93860.00
2023-04-02T02:59:31.118Z,93858.00
2023-04-02T03:00:31.199Z,93860.00
2023-04-02T03:01:31.276Z,93860.00
2023-04-02T03:02:31.430Z,93860.00
2023-04-02T03:03:31.540Z,93860.00
2023-04-02T03:04:31.459Z,93862.00
2023-04-02T03:05:31.497Z,93864.00
2023-04-02T03:06:31.564Z,93868.00
2023-04-02T03:07:31.614Z,93880.00
2023-04-02T03:08:31.672Z,93882.00
2023-04-02T03:09:31.753Z,93886.00
2023-04-02T03:10:31.796Z,93890.00
2023-04-02T03:11:31.858Z,93892.00
2023-04-02T03:12:31.939Z,93894.00
2023-04-02T03:13:31.999Z,93894.00
2023-04-02T03:14:32.056Z,93895.00
2023-04-02T03:15:32.144Z,93895.00
2023-04-02T03:16:32.179Z,93895.00
2023-04-02T03:17:32.265Z,93899.00
2023-04-02T03:18:32.294Z,93897.00
2023-04-02T03:19:32.383Z,93901.00
2023-04-02T03:20:32.433Z,93899.00
2023-04-02T03:21:32.483Z,93905.00
2023-04-02T03:22:32.542Z,93905.00
2023-04-02T03:23:32.604Z,93903.00
2023-04-02T03:24:32.701Z,93907.00
2023-04-02T03:25:32.973Z,93905.00
2023-04-02T03:26:32.823Z,93901.00
2023-04-02T03:27:32.872Z,93903.00
2023-04-02T03:28:32.917Z,93905.00
2023-04-02T03:29:32.991Z,93903.00
2023-04-02T03:30:33.054Z,93905.00
2023-04-02T03:31:33.152Z,93905.00
2023-04-02T03:32:33.198Z,93901.00
2023-04-02T03:33:33.241Z,93905.00
2023-04-02T03:34:33.294Z,93903.00
2023-04-02T03:35:33.595Z,93909.00
2023-04-02T03:36:33.403Z,93911.00
2023-04-02T03:37:33.467Z,93911.00
2023-04-02T03:38:33.532Z,93913.00
2023-04-02T03:39:33.607Z,93913.00
2023-04-02T03:40:33.661Z,93913.00
2023-04-02T03:41:33.711Z,93915.00
2023-04-02T03:42:33.779Z,93915.00
2023-04-02T03:43:33.843Z,93917.00
2023-04-02T03:44:33.899Z,93915.00
2023-04-02T03:45:34.308Z,93917.00
2023-04-02T03:46:34.088Z,93919.00
2023-04-02T03:47:34.168Z,93921.00
2023-04-02T03:48:34.145Z,93923.00
2023-04-02T03:49:34.206Z,93925.00
2023-04-02T03:50:34.275Z,93927.00
2023-04-02T03:51:34.354Z,93929.00
2023-04-02T03:52:34.411Z,93931.00
2023-04-02T03:53:34.449Z,93933.00
2023-04-02T03:54:34.529Z,93933.00
2023-04-02T03:55:34.739Z,93939.00
2023-04-02T03:56:34.644Z,93939.00
2023-04-02T03:57:34.722Z,93941.00
2023-04-02T03:58:34.821Z,93942.00
2023-04-02T03:59:34.854Z,93944.00
2023-04-02T04:00:34.873Z,93944.00
2023-04-02T04:01:35.004Z,93942.00
2023-04-02T04:02:35.067Z,93944.00
2023-04-02T04:03:35.066Z,93946.00
2023-04-02T04:04:35.162Z,93946.00
2023-04-02T04:05:35.419Z,93948.00
2023-04-02T04:06:35.267Z,93946.00
2023-04-02T04:07:35.324Z,93944.00
2023-04-02T04:08:35.397Z,93946.00
2023-04-02T04:09:35.492Z,93944.00
2023-04-02T04:10:35.514Z,93942.00
2023-04-02T04:11:35.564Z,93941.00
2023-04-02T04:12:35.634Z,93942.00
2023-04-02T04:13:35.702Z,93942.00
2023-04-02T04:14:35.747Z,93944.00
2023-04-02T04:15:36.027Z,93944.00
2023-04-02T04:16:35.931Z,93942.00
2023-04-02T04:17:35.964Z,93948.00
2023-04-02T04:18:36.016Z,93948.00
2023-04-02T04:19:36.077Z,93946.00
2023-04-02T04:20:36.137Z,93950.00
2023-04-02T04:21:36.209Z,93948.00
2023-04-02T04:22:36.268Z,93950.00
2023-04-02T04:23:36.340Z,93954.00
2023-04-02T04:24:36.398Z,93954.00
2023-04-02T04:25:36.634Z,93954.00
2023-04-02T04:26:36.524Z,93952.00
2023-04-02T04:27:36.577Z,93952.00
2023-04-02T04:28:36.639Z,93952.00
2023-04-02T04:29:36.691Z,93952.00
2023-04-02T04:30:36.758Z,93954.00
2023-04-02T04:31:36.868Z,93954.00
2023-04-02T04:32:36.946Z,93962.00
2023-04-02T04:33:36.968Z,93962.00
2023-04-02T04:34:37.023Z,93964.00
2023-04-02T04:35:37.411Z,93970.00
2023-04-02T04:36:37.152Z,93970.00
2023-04-02T04:37:37.238Z,93970.00
2023-04-02T04:38:37.287Z,93970.00
2023-04-02T04:39:37.354Z,93972.00
2023-04-02T04:40:37.418Z,93974.00
2023-04-02T04:41:37.489Z,93976.00
2023-04-02T04:42:37.540Z,93980.00
2023-04-02T04:43:37.592Z,93982.00
2023-04-02T04:44:37.677Z,93982.00
2023-04-02T04:45:37.846Z,93984.00
2023-04-02T04:46:37.785Z,93982.00
2023-04-02T04:47:37.943Z,93984.00
2023-04-02T04:48:37.918Z,93988.00
2023-04-02T04:49:37.967Z,93988.00
2023-04-02T04:50:38.057Z,93988.00
2023-04-02T04:51:38.094Z,93988.00
2023-04-02T04:52:38.184Z,93986.00
2023-04-02T04:53:38.236Z,93988.00
2023-04-02T04:54:38.297Z,93990.00
2023-04-02T04:55:38.387Z,93990.00
2023-04-02T04:56:38.408Z,93992.00
2023-04-02T04:57:38.472Z,93996.00
2023-04-02T04:58:38.549Z,93997.00
2023-04-02T04:59:38.621Z,93997.00
2023-04-02T05:00:38.673Z,94003.00
2023-04-02T05:01:38.770Z,94005.00
2023-04-02T05:02:38.808Z,94005.00
2023-04-02T05:03:38.839Z,94009.00
2023-04-02T05:04:38.923Z,94007.00
2023-04-02T05:05:38.956Z,94009.00
2023-04-02T05:06:39.046Z,94007.00
2023-04-02T05:07:39.093Z,94009.00
2023-04-02T05:08:39.155Z,94011.00
2023-04-02T05:09:39.198Z,94009.00
2023-04-02T05:10:39.294Z,94009.00
2023-04-02T05:11:39.336Z,94011.00
2023-04-02T05:12:39.398Z,94013.00
2023-04-02T05:13:39.441Z,94013.00
2023-04-02T05:14:39.514Z,94015.00
2023-04-02T05:15:39.739Z,94015.00
2023-04-02T05:16:39.854Z,94017.00
2023-04-02T05:17:39.728Z,94017.00
2023-04-02T05:18:39.756Z,94015.00
2023-04-02T05:19:39.830Z,94013.00
2023-04-02T05:20:39.872Z,94019.00
2023-04-02T05:21:39.952Z,94017.00
2023-04-02T05:22:41.394Z,94017.00
2023-04-02T05:23:40.080Z,94019.00
2023-04-02T05:24:40.127Z,94015.00
2023-04-02T05:25:40.191Z,94021.00
2023-04-02T05:26:40.239Z,94019.00
2023-04-02T05:27:40.310Z,94023.00
2023-04-02T05:28:40.377Z,94019.00
2023-04-02T05:29:40.440Z,94023.00
2023-04-02T05:30:40.532Z,94025.00
2023-04-02T05:31:40.595Z,94023.00
2023-04-02T05:32:40.649Z,94029.00
2023-04-02T05:33:40.637Z,94029.00
2023-04-02T05:34:40.693Z,94033.00
2023-04-02T05:35:40.784Z,94029.00
2023-04-02T05:36:40.800Z,94031.00
2023-04-02T05:37:40.864Z,94029.00
2023-04-02T05:38:40.936Z,94027.00
2023-04-02T05:39:40.993Z,94031.00
2023-04-02T05:40:41.082Z,94029.00
2023-04-02T05:41:41.113Z,94027.00
2023-04-02T05:42:41.193Z,94031.00
2023-04-02T05:43:41.232Z,94033.00
2023-04-02T05:44:41.293Z,94033.00
2023-04-02T05:45:41.350Z,94033.00
2023-04-02T05:46:41.457Z,94033.00
2023-04-02T05:47:41.874Z,94035.00
2023-04-02T05:48:41.570Z,94035.00
2023-04-02T05:49:41.622Z,94036.00
2023-04-02T05:50:41.666Z,94035.00
2023-04-02T05:51:41.735Z,94036.00
2023-04-02T05:52:41.800Z,94035.00
2023-04-02T05:53:41.873Z,94038.00
2023-04-02T05:54:41.923Z,94038.00
2023-04-02T05:55:41.985Z,94036.00
2023-04-02T05:56:42.039Z,94038.00
2023-04-02T05:57:45.836Z,94038.00
2023-04-02T05:58:45.565Z,94038.00
2023-04-02T05:59:42.082Z,94044.00
2023-04-02T06:00:42.109Z,94042.00
2023-04-02T06:01:42.144Z,94042.00
2023-04-02T06:02:42.139Z,94040.00
2023-04-02T06:03:42.140Z,94044.00
2023-04-02T06:04:42.051Z,94046.00
2023-04-02T06:05:42.080Z,94048.00
2023-04-02T06:06:42.045Z,94050.00
2023-04-02T06:07:42.035Z,94052.00
2023-04-02T06:08:42.051Z,94052.00
2023-04-02T06:09:42.022Z,94054.00
2023-04-02T06:10:42.027Z,94058.00
2023-04-02T06:11:42.025Z,94060.00
2023-04-02T06:12:42.051Z,94062.00
2023-04-02T06:13:42.014Z,94062.00
2023-04-02T06:14:42.010Z,94064.00
2023-04-02T06:15:41.992Z,94064.00
2023-04-02T06:16:42.013Z,94066.00
2023-04-02T06:17:42.032Z,94064.00
2023-04-02T06:18:41.952Z,94062.00
2023-04-02T06:19:41.994Z,94062.00
2023-04-02T06:20:41.965Z,94064.00
2023-04-02T06:21:41.945Z,94068.00
2023-04-02T06:22:41.960Z,94068.00
2023-04-02T06:23:41.961Z,94066.00
2023-04-02T06:24:41.927Z,94068.00
2023-04-02T06:25:41.917Z,94066.00
2023-04-02T06:26:41.914Z,94064.00
2023-04-02T06:27:41.917Z,94062.00
2023-04-02T06:28:41.908Z,94062.00
2023-04-02T06:29:41.889Z,94068.00
2023-04-02T06:30:41.943Z,94066.00
2023-04-02T06:31:41.879Z,94068.00
2023-04-02T06:32:41.938Z,94068.00
2023-04-02T06:33:41.881Z,94072.00
2023-04-02T06:34:41.864Z,94072.00
2023-04-02T06:35:41.921Z,94076.00
2023-04-02T06:36:41.916Z,94076.00
2023-04-02T06:37:41.944Z,94074.00
2023-04-02T06:38:41.969Z,94074.00
2023-04-02T06:39:41.993Z,94074.00
2023-04-02T06:40:41.999Z,94080.00
2023-04-02T06:41:42.018Z,94080.00
2023-04-02T06:42:42.056Z,94080.00
2023-04-02T06:43:42.069Z,94084.00
2023-04-02T06:44:42.095Z,94086.00
2023-04-02T06:45:42.169Z,94082.00
2023-04-02T06:46:42.103Z,94084.00
2023-04-02T06:47:42.189Z,94084.00
2023-04-02T06:48:42.115Z,94086.00
2023-04-02T06:49:42.126Z,94088.00
2023-04-02T06:50:42.160Z,94088.00
2023-04-02T06:51:42.135Z,94088.00
2023-04-02T06:52:42.136Z,94090.00
2023-04-02T06:53:42.133Z,94090.00
2023-04-02T06:54:42.175Z,94091.00
2023-04-02T06:55:42.130Z,94091.00
2023-04-02T06:56:42.115Z,94093.00
2023-04-02T06:57:43.040Z,94093.00
2023-04-02T06:58:42.149Z,94095.00
2023-04-02T06:59:42.185Z,94093.00
2023-04-02T07:00:42.184Z,94093.00
2023-04-02T07:01:42.257Z,94093.00
2023-04-02T07:02:42.304Z,94091.00
2023-04-02T07:03:42.306Z,94093.00
2023-04-02T07:04:42.424Z,94091.00
2023-04-02T07:05:43.190Z,94093.00
2023-04-02T07:06:42.488Z,94095.00
2023-04-02T07:07:42.536Z,94093.00
2023-04-02T07:08:42.603Z,94093.00
2023-04-02T07:09:42.677Z,94093.00
2023-04-02T07:10:42.723Z,94093.00
2023-04-02T07:11:42.777Z,94093.00
2023-04-02T07:12:42.852Z,94091.00
2023-04-02T07:13:42.904Z,94093.00
2023-04-02T07:14:42.931Z,94090.00
2023-04-02T07:15:43.036Z,94090.00
2023-04-02T07:16:43.033Z,94088.00
2023-04-02T07:17:43.102Z,94088.00
2023-04-02T07:18:43.090Z,94091.00
2023-04-02T07:19:43.142Z,94090.00
2023-04-02T07:20:43.167Z,94091.00
2023-04-02T07:21:43.207Z,94091.00
2023-04-02T07:22:43.234Z,94091.00
2023-04-02T07:23:43.259Z,94090.00
2023-04-02T07:24:43.268Z,94090.00
2023-04-02T07:25:43.285Z,94088.00
2023-04-02T07:26:43.321Z,94084.00
2023-04-02T07:27:43.342Z,94084.00
2023-04-02T07:28:43.332Z,94084.00
2023-04-02T07:29:43.347Z,94084.00
2023-04-02T07:30:43.330Z,94088.00
2023-04-02T07:31:43.449Z,94086.00
2023-04-02T07:32:43.364Z,94086.00
2023-04-02T07:33:43.366Z,94082.00
2023-04-02T07:34:43.383Z,94084.00
2023-04-02T07:35:43.426Z,94082.00
2023-04-02T07:36:43.423Z,94084.00
2023-04-02T07:37:43.430Z,94080.00
2023-04-02T07:38:43.445Z,94082.00
2023-04-02T07:39:43.528Z,94084.00
2023-04-02T07:40:43.565Z,94084.00
2023-04-02T07:41:43.590Z,94086.00
2023-04-02T07:42:43.616Z,94086.00
2023-04-02T07:43:43.593Z,94084.00
2023-04-02T07:44:43.616Z,94088.00
2023-04-02T07:45:43.614Z,94088.00
2023-04-02T07:46:43.632Z,94091.00
2023-04-02T07:47:43.615Z,94093.00
2023-04-02T07:48:43.617Z,94093.00
2023-04-02T07:49:43.600Z,94091.00
2023-04-02T07:50:43.592Z,94093.00
2023-04-02T07:51:43.612Z,94093.00
2023-04-02T07:52:43.625Z,94095.00
2023-04-02T07:53:43.608Z,94093.00
2023-04-02T07:54:43.610Z,94093.00
2023-04-02T07:55:43.623Z,94095.00
2023-04-02T07:56:43.692Z,94097.00
2023-04-02T07:57:46.377Z,94097.00
2023-04-02T07:58:43.784Z,94095.00
2023-04-02T07:59:43.717Z,94097.00
2023-04-02T08:00:43.709Z,94093.00
2023-04-02T08:01:43.776Z,94093.00
2023-04-02T08:02:43.745Z,94093.00
2023-04-02T08:03:43.858Z,94090.00
2023-04-02T08:04:43.709Z,94090.00
2023-04-02T08:05:43.702Z,94090.00
2023-04-02T08:06:43.715Z,94088.00
2023-04-02T08:07:43.680Z,94091.00
2023-04-02T08:08:43.687Z,94090.00
2023-04-02T08:09:43.654Z,94090.00
2023-04-02T08:10:43.666Z,94091.00
2023-04-02T08:11:43.671Z,94093.00
2023-04-02T08:12:43.636Z,94093.00
2023-04-02T08:13:43.650Z,94093.00
2023-04-02T08:14:43.651Z,94093.00
2023-04-02T08:15:43.614Z,94093.00
2023-04-02T08:16:43.629Z,94097.00
2023-04-02T08:17:43.684Z,94093.00
2023-04-02T08:18:43.614Z,94095.00
2023-04-02T08:19:54.254Z,94093.00
2023-04-02T08:20:44.598Z,94093.00
2023-04-02T08:21:43.596Z,94095.00
2023-04-02T08:22:43.584Z,94093.00
2023-04-02T08:23:43.624Z,94095.00
2023-04-02T08:24:43.645Z,94097.00
2023-04-02T08:25:43.554Z,94093.00
2023-04-02T08:26:45.479Z,94095.00
2023-04-02T08:27:43.544Z,94095.00
2023-04-02T08:28:43.563Z,94093.00
2023-04-02T08:29:43.544Z,94093.00
2023-04-02T08:30:43.597Z,94090.00
2023-04-02T08:31:43.585Z,94091.00
2023-04-02T08:32:43.669Z,94090.00
2023-04-02T08:33:43.655Z,94090.00
2023-04-02T08:34:43.694Z,94090.00
2023-04-02T08:35:43.756Z,94090.00
2023-04-02T08:36:43.784Z,94090.00
2023-04-02T08:37:43.798Z,94090.00
2023-04-02T08:38:43.863Z,94088.00
2023-04-02T08:39:43.863Z,94088.00
2023-04-02T08:40:43.892Z,94088.00
2023-04-02T08:41:43.910Z,94088.00
2023-04-02T08:42:43.951Z,94084.00
2023-04-02T08:43:44.024Z,94086.00
2023-04-02T08:44:43.976Z,94088.00
2023-04-02T08:45:44.040Z,94086.00
2023-04-02T08:46:44.034Z,94084.00
2023-04-02T08:47:44.076Z,94084.00
2023-04-02T08:48:44.103Z,94084.00
2023-04-02T08:49:44.101Z,94080.00
2023-04-02T08:50:44.124Z,94082.00
2023-04-02T08:51:44.145Z,94082.00
2023-04-02T08:52:44.168Z,94084.00
2023-04-02T08:53:44.176Z,94082.00
2023-04-02T08:54:44.200Z,94078.00
2023-04-02T08:55:44.291Z,94080.00
2023-04-02T08:56:44.257Z,94082.00
2023-04-02T08:57:44.260Z,94082.00
2023-04-02T08:58:44.294Z,94082.00
2023-04-02T08:59:44.327Z,94082.00
2023-04-02T09:00:44.322Z,94078.00
2023-04-02T09:01:44.459Z,94082.00
2023-04-02T09:02:44.394Z,94078.00
2023-04-02T09:03:44.393Z,94080.00
2023-04-02T09:04:44.430Z,94078.00
2023-04-02T09:05:44.450Z,94078.00
2023-04-02T09:06:44.505Z,94080.00
2023-04-02T09:07:44.532Z,94082.00
2023-04-02T09:08:44.563Z,94080.00
2023-04-02T09:09:44.596Z,94082.00
2023-04-02T09:10:44.619Z,94084.00
2023-04-02T09:11:44.660Z,94084.00
2023-04-02T09:12:44.708Z,94086.00
2023-04-02T09:13:44.749Z,94088.00
2023-04-02T09:14:44.780Z,94086.00
2023-04-02T09:15:44.944Z,94086.00
2023-04-02T09:16:44.830Z,94084.00
2023-04-02T09:17:53.639Z,94084.00
2023-04-02T09:18:45.923Z,94086.00
2023-04-02T09:19:44.882Z,94084.00
2023-04-02T09:20:44.866Z,94084.00
2023-04-02T09:21:44.852Z,94086.00
2023-04-02T09:22:44.841Z,94084.00
2023-04-02T09:23:44.837Z,94086.00
2023-04-02T09:24:44.840Z,94082.00
2023-04-02T09:25:51.054Z,94084.00
2023-04-02T09:26:45.841Z,94084.00
2023-04-02T09:27:44.816Z,94084.00
2023-04-02T09:28:44.813Z,94086.00
2023-04-02T09:29:44.838Z,94088.00
2023-04-02T09:30:44.819Z,94090.00
2023-04-02T09:31:44.815Z,94086.00
2023-04-02T09:32:44.880Z,94088.00
2023-04-02T09:33:44.817Z,94090.00
2023-04-02T09:34:44.806Z,94090.00
2023-04-02T09:35:44.878Z,94091.00
2023-04-02T09:36:44.769Z,94093.00
2023-04-02T09:37:44.769Z,94091.00
2023-04-02T09:38:44.836Z,94093.00
2023-04-02T09:39:44.935Z,94091.00
2023-04-02T09:40:44.907Z,94093.00
2023-04-02T09:41:48.200Z,94091.00
2023-04-02T09:42:45.971Z,94093.00
2023-04-02T09:43:44.970Z,94095.00
2023-04-02T09:44:44.939Z,94093.00
2023-04-02T09:45:44.940Z,94090.00
2023-04-02T09:46:44.991Z,94093.00
2023-04-02T09:47:44.972Z,94090.00
2023-04-02T09:48:44.920Z,94086.00
2023-04-02T09:49:44.948Z,94090.00
2023-04-02T09:50:44.915Z,94090.00
2023-04-02T09:51:44.899Z,94090.00
2023-04-02T09:52:44.915Z,94088.00
2023-04-02T09:53:44.960Z,94088.00
2023-04-02T09:54:45.023Z,94090.00
2023-04-02T09:55:45.088Z,94088.00
2023-04-02T09:56:45.134Z,94091.00
2023-04-02T09:57:45.203Z,94090.00
2023-04-02T09:58:45.259Z,94091.00
2023-04-02T09:59:45.309Z,94090.00
2023-04-02T10:00:45.589Z,94095.00
2023-04-02T10:01:45.452Z,94091.00
2023-04-02T10:02:45.529Z,94088.00
2023-04-02T10:03:45.562Z,94088.00
2023-04-02T10:04:45.666Z,94090.00
2023-04-02T10:05:46.022Z,94093.00
2023-04-02T10:06:45.726Z,94090.00
2023-04-02T10:07:45.787Z,94090.00
2023-04-02T10:08:45.822Z,94091.00
2023-04-02T10:09:45.856Z,94091.00
2023-04-02T10:10:45.901Z,94090.00
2023-04-02T10:11:46.848Z,94091.00
2023-04-02T10:12:45.984Z,94093.00
2023-04-02T10:13:46.023Z,94091.00
2023-04-02T10:14:46.049Z,94093.00
2023-04-02T10:15:46.053Z,94093.00
2023-04-02T10:16:46.149Z,94093.00
2023-04-02T10:17:46.136Z,94093.00
2023-04-02T10:18:46.100Z,94095.00
2023-04-02T10:19:46.099Z,94093.00
2023-04-02T10:20:51.198Z,94090.00
2023-04-02T10:21:47.080Z,94090.00
2023-04-02T10:22:46.058Z,94091.00
2023-04-02T10:23:46.100Z,94091.00
2023-04-02T10:24:46.064Z,94093.00
2023-04-02T10:25:46.051Z,94090.00
2023-04-02T10:26:46.047Z,94091.00
2023-04-02T10:27:46.046Z,94091.00
2023-04-02T10:28:46.063Z,94091.00
2023-04-02T10:29:46.036Z,94093.00
2023-04-02T10:30:46.085Z,94091.00
2023-04-02T10:31:46.014Z,94088.00
2023-04-02T10:32:46.007Z,94088.00
2023-04-02T10:33:46.005Z,94088.00
2023-04-02T10:34:45.993Z,94084.00
2023-04-02T10:35:45.994Z,94086.00
2023-04-02T10:36:45.985Z,94084.00
2023-04-02T10:37:45.976Z,94086.00
2023-04-02T10:38:45.954Z,94086.00
2023-04-02T10:39:45.974Z,94088.00
2023-04-02T10:40:45.958Z,94084.00
2023-04-02T10:41:45.936Z,94082.00
2023-04-02T10:42:45.931Z,94084.00
2023-04-02T10:43:45.944Z,94088.00
2023-04-02T10:44:45.949Z,94090.00
2023-04-02T10:45:45.938Z,94090.00
2023-04-02T10:46:45.924Z,94086.00
2023-04-02T10:47:45.937Z,94090.00
2023-04-02T10:48:45.891Z,94088.00
2023-04-02T10:49:45.932Z,94086.00
2023-04-02T10:50:45.891Z,94091.00
2023-04-02T10:51:45.908Z,94091.00
2023-04-02T10:52:45.920Z,94095.00
2023-04-02T10:53:45.870Z,94095.00
2023-04-02T10:54:45.877Z,94095.00
2023-04-02T10:55:45.858Z,94097.00
2023-04-02T10:56:51.177Z,94101.00
2023-04-02T10:57:46.867Z,94101.00
2023-04-02T10:58:45.837Z,94101.00
2023-04-02T10:59:45.852Z,94101.00
2023-04-02T11:00:45.873Z,94099.00
2023-04-02T11:01:45.882Z,94099.00
2023-04-02T11:02:45.924Z,94103.00
2023-04-02T11:03:45.931Z,94103.00
2023-04-02T11:04:45.808Z,94105.00
2023-04-02T11:05:45.788Z,94105.00
2023-04-02T11:06:45.783Z,94107.00
2023-04-02T11:07:45.787Z,94107.00
2023-04-02T11:08:45.766Z,94105.00
2023-04-02T11:09:45.784Z,94105.00
2023-04-02T11:10:45.791Z,94103.00
2023-04-02T11:11:45.760Z,94103.00
2023-04-02T11:12:45.747Z,94105.00
2023-04-02T11:13:45.735Z,94105.00
2023-04-02T11:14:45.739Z,94105.00
2023-04-02T11:15:45.767Z,94105.00
2023-04-02T11:16:45.819Z,94103.00
2023-04-02T11:17:45.786Z,94107.00
2023-04-02T11:18:45.793Z,94107.00
2023-04-02T11:19:45.854Z,94107.00
2023-04-02T11:20:45.940Z,94109.00
2023-04-02T11:21:57.869Z,94107.00
2023-04-02T11:22:46.988Z,94111.00
2023-04-02T11:23:45.970Z,94107.00
2023-04-02T11:24:45.973Z,94113.00
2023-04-02T11:25:46.000Z,94109.00
2023-04-02T11:26:45.967Z,94111.00
2023-04-02T11:27:45.940Z,94111.00
2023-04-02T11:28:45.952Z,94111.00
2023-04-02T11:29:45.941Z,94115.00
2023-04-02T11:30:45.949Z,94115.00
2023-04-02T11:31:45.994Z,94121.00
2023-04-02T11:32:46.052Z,94123.00
2023-04-02T11:33:48.083Z,94125.00
2023-04-02T11:34:47.052Z,94125.00
2023-04-02T11:35:46.119Z,94129.00
2023-04-02T11:36:46.013Z,94136.00
2023-04-02T11:37:46.028Z,94140.00
2023-04-02T11:38:45.992Z,94140.00
2023-04-02T11:39:46.002Z,94144.00
2023-04-02T11:40:46.018Z,94140.00
2023-04-02T11:41:45.974Z,94142.00
2023-04-02T11:42:45.985Z,94142.00
2023-04-02T11:43:45.969Z,94146.00
2023-04-02T11:44:45.963Z,94148.00